Time;durP1;ratioP1;P1;durP2;ratioP2;P2;SDS_P1;SDS_P2;PMS_P1;PMS_P2;Temp;Humidity;BMP_temperature;BMP_pressure;BME280_temperature;BME280_humidity;BME280_pressure;Samples;Min_cycle;Max_cycle;Signal;HPM_P1;HPM_P2
2022/07/30 00:01:02;;;;;;;0.30;0.30;;;18.90;99.90;;;;;;5071193;28;20291;-79
2022/07/30 00:03:28;;;;;;;0.47;0.47;;;18.80;99.90;;;;;;5063691;28;20253;-79
2022/07/30 00:05:55;;;;;;;0.40;0.33;;;18.60;99.90;;;;;;5065534;28;20769;-79
2022/07/30 00:08:21;;;;;;;2.30;0.90;;;18.60;99.90;;;;;;5068355;28;20174;-79
2022/07/30 00:10:47;;;;;;;0.80;0.80;;;18.80;99.90;;;;;;5065615;28;20646;-79
2022/07/30 00:13:12;;;;;;;0.73;0.73;;;18.80;99.90;;;;;;5071169;28;20243;-79
2022/07/30 00:15:38;;;;;;;0.47;0.47;;;19.00;99.90;;;;;;5070280;28;20192;-79
2022/07/30 00:18:03;;;;;;;0.70;0.70;;;19.10;99.90;;;;;;5063663;28;20186;-79
2022/07/30 00:20:29;;;;;;;0.50;0.50;;;19.20;99.90;;;;;;5069447;28;20627;-79
2022/07/30 00:22:55;;;;;;;0.50;0.50;;;19.10;99.90;;;;;;5069840;28;20206;-80
2022/07/30 00:25:20;;;;;;;0.63;0.50;;;19.20;99.90;;;;;;5061791;28;20180;-79
2022/07/30 00:27:46;;;;;;;0.30;0.30;;;19.30;99.90;;;;;;5070671;28;20250;-80
2022/07/30 00:30:12;;;;;;;0.70;0.70;;;19.30;99.90;;;;;;5090873;28;20213;-79
2022/07/30 00:32:38;;;;;;;2.10;1.40;;;19.30;99.90;;;;;;5075018;28;20210;-79
2022/07/30 00:35:05;;;;;;;0.90;0.90;;;19.30;99.90;;;;;;5062156;28;20186;-79
2022/07/30 00:37:30;;;;;;;0.50;0.50;;;19.30;99.90;;;;;;5076044;28;20185;-79
2022/07/30 00:39:56;;;;;;;0.67;0.50;;;19.20;99.90;;;;;;5068835;28;20204;-79
2022/07/30 00:42:24;;;;;;;1.07;0.87;;;19.30;99.90;;;;;;5065796;28;20406;-80
2022/07/30 00:44:53;;;;;;;0.77;0.77;;;19.10;99.90;;;;;;5074969;28;20188;-79
2022/07/30 00:47:19;;;;;;;1.00;0.60;;;18.90;99.90;;;;;;5087042;28;20269;-79
2022/07/30 00:49:45;;;;;;;0.40;0.40;;;18.80;99.90;;;;;;5067375;28;20296;-79
2022/07/30 00:52:11;;;;;;;0.40;0.40;;;18.90;99.90;;;;;;5063773;28;20206;-79
2022/07/30 00:54:37;;;;;;;0.83;0.83;;;18.60;99.90;;;;;;5061502;28;20215;-79
2022/07/30 00:57:03;;;;;;;0.93;0.50;;;18.40;99.90;;;;;;5072919;28;20188;-79
2022/07/30 00:59:28;;;;;;;1.33;0.93;;;18.40;99.90;;;;;;5061579;28;20186;-79
2022/07/30 01:01:54;;;;;;;0.80;0.80;;;18.50;99.90;;;;;;5065581;28;20260;-79
2022/07/30 01:04:20;;;;;;;0.90;0.50;;;18.70;99.90;;;;;;5061555;28;20718;-79
2022/07/30 01:06:46;;;;;;;0.40;0.40;;;18.80;99.90;;;;;;5065864;28;20638;-79
2022/07/30 01:09:12;;;;;;;2.03;0.90;;;18.90;99.90;;;;;;5071590;28;20200;-79
2022/07/30 01:11:41;;;;;;;0.70;0.60;;;18.90;99.90;;;;;;5071043;28;20230;-79
2022/07/30 01:14:08;;;;;;;1.50;0.93;;;18.90;99.90;;;;;;5071639;28;20193;-80
2022/07/30 01:16:36;;;;;;;0.43;0.43;;;18.90;99.90;;;;;;5071373;28;20189;-79
2022/07/30 01:22:05;;;;;;;0.60;0.57;;;18.80;99.90;;;;;;5070767;28;20540;-79
2022/07/30 01:24:45;;;;;;;0.50;0.50;;;18.80;99.90;;;;;;5072128;28;20205;-79
2022/07/30 01:27:13;;;;;;;0.30;0.30;;;18.80;99.90;;;;;;5067421;28;20180;-79
2022/07/30 01:29:42;;;;;;;0.50;0.50;;;18.80;99.90;;;;;;5083081;28;20603;-79
2022/07/30 01:32:09;;;;;;;0.40;0.40;;;18.90;99.90;;;;;;5068340;28;20212;-79
2022/07/30 01:34:38;;;;;;;1.53;0.80;;;18.90;99.90;;;;;;5071606;28;20250;-79
2022/07/30 01:37:07;;;;;;;1.17;0.60;;;18.80;99.90;;;;;;5070719;28;20222;-79
2022/07/30 01:39:35;;;;;;;0.67;0.67;;;18.90;99.90;;;;;;5070393;28;20181;-79
2022/07/30 01:42:04;;;;;;;0.80;0.80;;;18.90;99.90;;;;;;5069557;28;20209;-79
2022/07/30 01:44:30;;;;;;;0.77;0.77;;;18.90;99.90;;;;;;5062423;28;20607;-79
2022/07/30 01:46:56;;;;;;;0.30;0.30;;;18.90;99.90;;;;;;5064356;28;20212;-79
2022/07/30 01:49:24;;;;;;;0.60;0.60;;;18.80;99.90;;;;;;5070069;28;20196;-79
2022/07/30 01:51:50;;;;;;;0.93;0.60;;;18.80;99.90;;;;;;5069418;28;20234;-79
2022/07/30 01:54:17;;;;;;;0.90;0.70;;;18.70;99.90;;;;;;5059892;28;20680;-79
2022/07/30 01:56:46;;;;;;;0.57;0.57;;;18.60;99.90;;;;;;5063077;28;20191;-79
2022/07/30 01:59:15;;;;;;;0.40;0.40;;;18.60;99.90;;;;;;5067023;28;20444;-79
2022/07/30 02:01:40;;;;;;;1.07;0.80;;;18.60;99.90;;;;;;5072172;28;20196;-79
2022/07/30 02:04:06;;;;;;;1.57;0.57;;;18.50;99.90;;;;;;5058872;28;20263;-79
2022/07/30 02:06:40;;;;;;;0.73;0.73;;;18.30;99.90;;;;;;5069135;28;20181;-79
2022/07/30 02:09:07;;;;;;;0.30;0.30;;;18.00;99.90;;;;;;5067532;28;20177;-80
2022/07/30 02:14:29;;;;;;;0.47;0.47;;;18.00;99.90;;;;;;5065517;28;20196;-79
2022/07/30 02:16:57;;;;;;;0.50;0.50;;;18.10;99.90;;;;;;5066349;28;20203;-79
2022/07/30 02:19:27;;;;;;;0.83;0.83;;;18.20;99.90;;;;;;5062116;28;20192;-79
2022/07/30 02:22:00;;;;;;;0.63;0.63;;;18.20;99.90;;;;;;5064347;28;20234;-79
2022/07/30 02:24:29;;;;;;;1.30;1.20;;;17.90;99.90;;;;;;5064666;28;20295;-79
2022/07/30 02:27:01;;;;;;;0.40;0.40;;;17.70;99.90;;;;;;5057767;28;20561;-79
2022/07/30 02:29:28;;;;;;;0.57;0.43;;;17.80;99.90;;;;;;5064823;28;20177;-79
2022/07/30 02:31:56;;;;;;;0.57;0.57;;;17.90;99.90;;;;;;5066415;28;20685;-79
2022/07/30 02:34:24;;;;;;;2.97;1.00;;;18.10;99.90;;;;;;5072579;28;20181;-79
2022/07/30 02:36:51;;;;;;;0.57;0.43;;;18.20;99.90;;;;;;5072888;28;20181;-79
2022/07/30 02:39:20;;;;;;;0.90;0.90;;;18.30;99.90;;;;;;5073610;28;20215;-79
2022/07/30 02:41:46;;;;;;;1.17;0.60;;;18.20;99.90;;;;;;5062839;28;20206;-79
2022/07/30 02:44:16;;;;;;;0.50;0.50;;;18.10;99.90;;;;;;5063351;28;20209;-78
2022/07/30 02:46:44;;;;;;;1.17;0.67;;;17.80;99.90;;;;;;5066192;28;20224;-80
2022/07/30 02:49:12;;;;;;;0.23;0.23;;;17.90;99.90;;;;;;5070173;28;20649;-79
2022/07/30 02:51:38;;;;;;;0.43;0.43;;;18.00;99.90;;;;;;5063855;28;20216;-79
2022/07/30 02:54:05;;;;;;;0.60;0.60;;;18.10;99.90;;;;;;5062916;28;20181;-79
2022/07/30 02:56:33;;;;;;;0.30;0.30;;;18.20;99.90;;;;;;5062506;28;20330;-79
2022/07/30 02:59:01;;;;;;;0.83;0.83;;;18.20;99.90;;;;;;5071627;28;20238;-79
2022/07/30 03:01:30;;;;;;;0.40;0.40;;;18.20;99.90;;;;;;5063205;28;20201;-79
2022/07/30 03:03:56;;;;;;;0.83;0.57;;;18.10;99.90;;;;;;5076033;28;20221;-80
2022/07/30 03:06:24;;;;;;;0.60;0.57;;;17.90;99.90;;;;;;5061843;28;20189;-79
2022/07/30 03:08:50;;;;;;;0.47;0.47;;;17.80;99.90;;;;;;5065565;28;20192;-79
2022/07/30 03:11:19;;;;;;;0.47;0.47;;;17.80;99.90;;;;;;5057011;28;20573;-79
2022/07/30 03:13:45;;;;;;;0.87;0.87;;;18.20;99.90;;;;;;5073961;28;20214;-79
2022/07/30 03:16:12;;;;;;;1.47;1.40;;;18.00;99.90;;;;;;5069335;28;20189;-79
2022/07/30 03:18:39;;;;;;;0.77;0.50;;;17.80;99.90;;;;;;5074681;28;20181;-79
2022/07/30 03:21:07;;;;;;;0.40;0.40;;;17.80;99.90;;;;;;5065196;28;20295;-79
2022/07/30 03:23:36;;;;;;;0.50;0.50;;;17.90;99.90;;;;;;5072438;28;20213;-79
2022/07/30 03:26:04;;;;;;;0.60;0.60;;;17.90;99.90;;;;;;5070523;28;20188;-79
2022/07/30 03:28:31;;;;;;;0.40;0.40;;;17.80;99.90;;;;;;5063091;28;20189;-79
2022/07/30 03:30:58;;;;;;;0.50;0.50;;;17.60;99.90;;;;;;5074269;28;20197;-79
2022/07/30 03:33:25;;;;;;;2.60;0.77;;;17.60;99.90;;;;;;5070875;28;20280;-79
2022/07/30 03:35:51;;;;;;;0.60;0.60;;;17.50;99.90;;;;;;5074989;28;20181;-79
2022/07/30 03:38:18;;;;;;;0.70;0.70;;;17.50;99.90;;;;;;5066033;28;20181;-79
2022/07/30 03:40:45;;;;;;;0.93;0.53;;;17.60;99.90;;;;;;5069839;28;20670;-79
2022/07/30 03:43:12;;;;;;;0.60;0.60;;;17.70;99.90;;;;;;5069828;28;20216;-78
2022/07/30 03:45:43;;;;;;;1.00;0.93;;;17.90;99.90;;;;;;5062470;28;20196;-79
2022/07/30 03:48:10;;;;;;;0.53;0.53;;;17.80;99.90;;;;;;5088080;28;20192;-79
2022/07/30 03:50:38;;;;;;;0.50;0.50;;;17.80;99.90;;;;;;5068749;28;20211;-79
2022/07/30 03:53:04;;;;;;;0.97;0.43;;;17.70;99.90;;;;;;5072747;28;20188;-79
2022/07/30 03:55:31;;;;;;;1.47;0.70;;;17.70;99.90;;;;;;5066212;28;20216;-79
2022/07/30 03:57:57;;;;;;;0.70;0.70;;;17.70;99.90;;;;;;5073499;28;20188;-79
2022/07/30 04:00:23;;;;;;;0.30;0.30;;;17.70;99.90;;;;;;5065816;28;20192;-79
2022/07/30 04:02:49;;;;;;;0.77;0.60;;;17.70;99.90;;;;;;5068957;28;20291;-79
2022/07/30 04:05:15;;;;;;;0.73;0.73;;;17.70;99.90;;;;;;5065413;28;20200;-79
2022/07/30 04:07:42;;;;;;;0.63;0.63;;;17.70;99.90;;;;;;5063708;28;20180;-79
2022/07/30 04:10:08;;;;;;;0.40;0.40;;;17.70;99.90;;;;;;5060480;28;20207;-79
2022/07/30 04:12:34;;;;;;;0.47;0.47;;;17.80;99.90;;;;;;5068802;28;20624;-79
2022/07/30 04:15:00;;;;;;;1.23;0.93;;;17.80;99.90;;;;;;5071924;28;20203;-79
2022/07/30 04:17:35;;;;;;;0.40;0.40;;;17.80;99.90;;;;;;5074168;28;20185;-79
2022/07/30 04:20:06;;;;;;;0.50;0.37;;;17.80;99.90;;;;;;5066006;28;20253;-79
2022/07/30 04:22:35;;;;;;;0.50;0.50;;;17.80;99.90;;;;;;5070800;28;20220;-79
2022/07/30 04:25:02;;;;;;;0.40;0.40;;;17.80;99.90;;;;;;5081761;28;20281;-79
2022/07/30 04:27:30;;;;;;;0.43;0.43;;;17.70;99.90;;;;;;5065320;28;20616;-79
2022/07/30 04:29:56;;;;;;;0.33;0.33;;;17.80;99.90;;;;;;5070988;28;20663;-79
2022/07/30 04:32:22;;;;;;;0.80;0.67;;;17.80;99.90;;;;;;5074785;28;20254;-79
2022/07/30 04:34:49;;;;;;;0.30;0.30;;;17.90;99.90;;;;;;5072575;28;20181;-79
2022/07/30 04:37:16;;;;;;;0.67;0.67;;;18.10;99.90;;;;;;5072440;28;20174;-79
2022/07/30 04:39:42;;;;;;;0.37;0.37;;;18.30;99.90;;;;;;5062860;28;20208;-79
2022/07/30 04:42:08;;;;;;;0.47;0.43;;;18.50;99.90;;;;;;5069203;28;20201;-79
2022/07/30 04:44:33;;;;;;;0.60;0.60;;;18.70;99.90;;;;;;5059406;28;20205;-79
2022/07/30 04:46:59;;;;;;;0.60;0.53;;;18.60;99.90;;;;;;5068338;28;20189;-79
2022/07/30 04:49:26;;;;;;;0.70;0.70;;;18.70;99.90;;;;;;5071399;28;20220;-79
2022/07/30 04:51:53;;;;;;;0.37;0.37;;;18.80;99.90;;;;;;5070120;28;20203;-79
2022/07/30 04:54:20;;;;;;;0.50;0.50;;;18.90;99.90;;;;;;5066957;28;20185;-79
2022/07/30 04:56:47;;;;;;;0.50;0.50;;;19.00;99.90;;;;;;5066014;28;20205;-79
2022/07/30 04:59:15;;;;;;;0.53;0.53;;;19.00;99.90;;;;;;5065371;28;20196;-79
2022/07/30 05:01:43;;;;;;;1.90;1.43;;;19.10;99.90;;;;;;5073193;28;20213;-79
2022/07/30 05:04:10;;;;;;;0.80;0.80;;;19.20;99.90;;;;;;5063708;28;20625;-78
2022/07/30 05:06:36;;;;;;;0.57;0.57;;;19.20;99.90;;;;;;5073307;28;20561;-79
2022/07/30 05:09:02;;;;;;;0.73;0.70;;;19.30;99.90;;;;;;5091268;28;20697;-79
2022/07/30 05:11:28;;;;;;;0.97;0.50;;;19.40;99.90;;;;;;5075466;28;20200;-79
2022/07/30 05:13:53;;;;;;;0.43;0.33;;;19.40;99.90;;;;;;5065371;28;20672;-79
2022/07/30 05:16:19;;;;;;;0.47;0.47;;;19.50;99.90;;;;;;5072218;28;20199;-79
2022/07/30 05:18:44;;;;;;;0.57;0.30;;;19.60;99.90;;;;;;5070902;28;20189;-79
2022/07/30 05:21:10;;;;;;;0.50;0.50;;;19.70;99.90;;;;;;5069716;28;20224;-79
2022/07/30 05:23:35;;;;;;;1.07;0.40;;;19.70;99.90;;;;;;5069481;28;20236;-79
2022/07/30 05:26:01;;;;;;;0.43;0.43;;;19.70;99.90;;;;;;5069422;28;20193;-79
2022/07/30 05:28:27;;;;;;;0.60;0.53;;;19.70;99.90;;;;;;5070265;28;20666;-79
2022/07/30 05:30:53;;;;;;;0.80;0.80;;;19.80;99.90;;;;;;5065132;28;20209;-79
2022/07/30 05:33:20;;;;;;;1.33;0.87;;;19.90;99.90;;;;;;5079613;28;20188;-79
2022/07/30 05:35:46;;;;;;;1.13;0.80;;;20.00;99.90;;;;;;5072288;28;20219;-79
2022/07/30 05:38:13;;;;;;;0.67;0.67;;;19.90;99.90;;;;;;5071068;28;20195;-79
2022/07/30 05:40:38;;;;;;;0.67;0.60;;;20.00;99.90;;;;;;5072605;28;20204;-79
2022/07/30 05:43:04;;;;;;;0.50;0.50;;;20.00;99.90;;;;;;5064702;28;20319;-79
2022/07/30 05:45:29;;;;;;;0.73;0.50;;;20.10;99.90;;;;;;5067483;28;20196;-79
2022/07/30 05:47:55;;;;;;;0.73;0.60;;;19.90;99.90;;;;;;5064280;28;20196;-79
2022/07/30 05:50:21;;;;;;;0.50;0.50;;;20.10;99.90;;;;;;5071663;28;20245;-79
2022/07/30 05:52:46;;;;;;;0.70;0.60;;;20.20;99.90;;;;;;5071844;28;20221;-79
2022/07/30 05:55:12;;;;;;;0.50;0.37;;;20.40;99.90;;;;;;5068679;28;20220;-79
2022/07/30 05:57:40;;;;;;;0.53;0.53;;;20.60;99.90;;;;;;5070122;28;20189;-79
2022/07/30 06:00:07;;;;;;;0.50;0.50;;;20.70;99.90;;;;;;5066437;28;20248;-79
2022/07/30 06:02:33;;;;;;;1.23;0.70;;;20.80;99.90;;;;;;5071628;28;20215;-79
2022/07/30 06:04:58;;;;;;;1.07;0.43;;;20.90;99.90;;;;;;5071697;28;20176;-79
2022/07/30 06:07:24;;;;;;;0.53;0.53;;;21.10;99.90;;;;;;5070393;28;20732;-79
2022/07/30 06:09:50;;;;;;;0.87;0.87;;;21.20;99.90;;;;;;5069982;28;20194;-79
2022/07/30 06:12:16;;;;;;;0.97;0.97;;;21.30;99.90;;;;;;5072618;28;20265;-79
2022/07/30 06:14:42;;;;;;;0.70;0.70;;;21.30;99.90;;;;;;5071188;28;20665;-79
2022/07/30 06:17:07;;;;;;;0.70;0.70;;;21.30;99.90;;;;;;5067257;28;20177;-79
2022/07/30 06:19:33;;;;;;;0.53;0.53;;;21.30;99.90;;;;;;5065598;28;20204;-79
2022/07/30 06:21:58;;;;;;;0.90;0.83;;;21.40;99.90;;;;;;5068404;28;20231;-79
2022/07/30 06:24:24;;;;;;;1.90;0.70;;;21.50;99.90;;;;;;5071190;28;20259;-79
2022/07/30 06:26:49;;;;;;;2.03;0.90;;;21.60;99.90;;;;;;5069081;28;20188;-79
2022/07/30 06:29:15;;;;;;;0.60;0.60;;;21.60;99.90;;;;;;5067545;28;20181;-79
2022/07/30 06:31:41;;;;;;;0.50;0.50;;;21.80;99.90;;;;;;5064944;28;20201;-79
2022/07/30 06:34:07;;;;;;;1.23;1.13;;;21.90;99.90;;;;;;5065547;28;20193;-79
2022/07/30 06:36:32;;;;;;;0.50;0.50;;;22.00;99.90;;;;;;5069729;28;20280;-80
2022/07/30 06:38:58;;;;;;;1.00;1.00;;;22.00;99.90;;;;;;5070654;28;20248;-79
2022/07/30 06:41:23;;;;;;;1.03;0.80;;;22.10;99.90;;;;;;5068446;28;20677;-79
2022/07/30 06:43:50;;;;;;;0.77;0.77;;;22.00;99.90;;;;;;5067342;28;20312;-79
2022/07/30 06:46:15;;;;;;;0.53;0.53;;;22.10;99.90;;;;;;5069546;28;20702;-79
2022/07/30 06:48:41;;;;;;;0.60;0.43;;;22.20;99.90;;;;;;5065070;28;20193;-80
2022/07/30 06:51:07;;;;;;;0.57;0.57;;;22.40;99.90;;;;;;5071146;28;20234;-79
2022/07/30 06:53:32;;;;;;;1.07;1.07;;;22.50;99.90;;;;;;5066954;28;20178;-79
2022/07/30 06:55:58;;;;;;;0.50;0.50;;;22.70;99.90;;;;;;5066606;28;20275;-79
2022/07/30 06:58:23;;;;;;;0.80;0.73;;;22.80;99.90;;;;;;5071776;28;20626;-79
2022/07/30 07:00:49;;;;;;;0.40;0.40;;;22.90;99.90;;;;;;5065368;28;20224;-79
2022/07/30 07:03:14;;;;;;;0.70;0.70;;;23.10;99.90;;;;;;5067643;28;20208;-79
2022/07/30 07:05:40;;;;;;;0.60;0.57;;;23.20;99.90;;;;;;5063864;28;20211;-79
2022/07/30 07:08:06;;;;;;;0.90;0.83;;;23.20;99.90;;;;;;5067829;28;20646;-79
2022/07/30 07:10:31;;;;;;;0.43;0.43;;;23.20;99.90;;;;;;5065195;28;20180;-79
2022/07/30 07:12:59;;;;;;;0.57;0.57;;;23.30;99.90;;;;;;5068302;28;20191;-79
2022/07/30 07:15:25;;;;;;;1.43;1.23;;;23.30;99.90;;;;;;5082282;28;20189;-79
2022/07/30 07:17:50;;;;;;;0.73;0.73;;;23.40;99.90;;;;;;5063964;28;20190;-79
2022/07/30 07:20:18;;;;;;;0.77;0.77;;;23.50;99.90;;;;;;5066275;28;20635;-79
2022/07/30 07:22:44;;;;;;;3.70;1.27;;;23.60;99.90;;;;;;5067361;28;20265;-80
2022/07/30 07:25:09;;;;;;;0.77;0.70;;;23.80;99.90;;;;;;5070375;28;20276;-79
2022/07/30 07:27:36;;;;;;;0.73;0.73;;;23.90;99.90;;;;;;5065436;28;20264;-79
2022/07/30 07:30:03;;;;;;;1.33;1.10;;;24.00;99.90;;;;;;5069474;28;20196;-79
2022/07/30 07:32:29;;;;;;;2.33;1.47;;;24.10;99.90;;;;;;5064851;28;20197;-79
2022/07/30 07:34:54;;;;;;;0.50;0.50;;;23.90;99.90;;;;;;5063624;28;20386;-79
2022/07/30 07:37:20;;;;;;;1.10;0.87;;;23.80;99.90;;;;;;5065882;28;20190;-80
2022/07/30 07:39:45;;;;;;;0.70;0.70;;;23.90;99.90;;;;;;5062580;28;20182;-79
2022/07/30 07:42:11;;;;;;;0.90;0.90;;;24.00;99.90;;;;;;5069756;28;20201;-79
2022/07/30 07:44:36;;;;;;;0.77;0.77;;;24.10;99.90;;;;;;5066431;28;20212;-79
2022/07/30 07:47:02;;;;;;;1.50;1.23;;;24.30;99.90;;;;;;5060797;28;20174;-79
2022/07/30 07:49:27;;;;;;;0.53;0.53;;;24.30;99.90;;;;;;5072419;28;20662;-79
2022/07/30 07:51:53;;;;;;;0.60;0.60;;;24.40;99.90;;;;;;5069292;28;20196;-80
2022/07/30 07:54:19;;;;;;;2.07;1.10;;;24.40;99.90;;;;;;5075837;28;20197;-80
2022/07/30 07:56:44;;;;;;;1.43;0.70;;;24.30;99.90;;;;;;5071449;28;20334;-79
2022/07/30 07:59:10;;;;;;;1.17;1.07;;;24.40;99.90;;;;;;5078158;28;20203;-79
2022/07/30 08:01:36;;;;;;;1.37;1.23;;;24.50;99.90;;;;;;5071163;28;20205;-79
2022/07/30 08:04:01;;;;;;;0.60;0.60;;;24.60;99.90;;;;;;5065437;28;20205;-79
2022/07/30 08:06:27;;;;;;;0.80;0.80;;;24.70;99.90;;;;;;5070729;28;20264;-79
2022/07/30 08:08:53;;;;;;;0.50;0.50;;;24.90;99.90;;;;;;5068368;28;20537;-79
2022/07/30 08:11:18;;;;;;;0.77;0.77;;;25.00;99.90;;;;;;5071420;28;20251;-80
2022/07/30 08:13:44;;;;;;;2.30;1.03;;;25.10;99.90;;;;;;5068826;28;20593;-79
2022/07/30 08:16:10;;;;;;;0.57;0.57;;;25.00;99.90;;;;;;5067758;28;20273;-79
2022/07/30 08:18:36;;;;;;;1.40;0.93;;;25.20;99.90;;;;;;5073324;28;20192;-80
2022/07/30 08:21:02;;;;;;;4.60;1.77;;;25.30;99.90;;;;;;5073810;28;20201;-79
2022/07/30 08:23:28;;;;;;;0.83;0.83;;;25.50;99.90;;;;;;5071943;28;20220;-80
2022/07/30 08:25:57;;;;;;;0.60;0.60;;;25.70;99.90;;;;;;5070436;28;20181;-79
2022/07/30 08:28:22;;;;;;;0.90;0.90;;;25.90;99.90;;;;;;5067166;28;20182;-80
2022/07/30 08:30:48;;;;;;;0.80;0.80;;;25.50;99.90;;;;;;5074345;28;20204;-80
2022/07/30 08:33:14;;;;;;;1.00;0.90;;;25.50;99.90;;;;;;5075254;28;20219;-79
2022/07/30 08:35:40;;;;;;;0.70;0.70;;;26.00;99.90;;;;;;5070136;28;20208;-80
2022/07/30 08:38:05;;;;;;;0.50;0.40;;;26.40;99.90;;;;;;5070542;28;20181;-80
2022/07/30 08:40:33;;;;;;;1.03;0.90;;;26.70;99.90;;;;;;5071015;28;20188;-80
2022/07/30 08:43:00;;;;;;;0.80;0.80;;;26.80;99.90;;;;;;5068322;28;20201;-80
2022/07/30 08:45:27;;;;;;;0.97;0.87;;;26.90;99.90;;;;;;5073583;28;20250;-79
2022/07/30 08:47:54;;;;;;;0.60;0.60;;;27.10;99.90;;;;;;5069202;28;20185;-80
2022/07/30 08:50:20;;;;;;;2.00;0.90;;;27.40;99.90;;;;;;5076062;28;20180;-80
2022/07/30 08:52:47;;;;;;;4.87;1.50;;;27.60;99.90;;;;;;5074664;28;20264;-80
2022/07/30 08:55:14;;;;;;;1.37;1.00;;;27.70;99.90;;;;;;5064102;28;20215;-80
2022/07/30 08:57:40;;;;;;;1.20;1.07;;;27.50;99.90;;;;;;5074525;28;20174;-80
2022/07/30 09:00:07;;;;;;;0.93;0.60;;;27.60;99.90;;;;;;5086624;28;20631;-79
2022/07/30 09:02:33;;;;;;;0.40;0.40;;;27.90;99.90;;;;;;5074300;28;20202;-79
2022/07/30 09:04:58;;;;;;;0.80;0.80;;;28.10;99.90;;;;;;5071645;28;20362;-80
2022/07/30 09:07:24;;;;;;;0.50;0.50;;;28.20;99.90;;;;;;5075115;28;20293;-79
2022/07/30 09:09:50;;;;;;;0.80;0.80;;;28.50;99.90;;;;;;5073363;28;20181;-79
2022/07/30 09:12:30;;;;;;;1.00;0.67;;;28.60;99.90;;;;;;5070730;28;20347;-80
2022/07/30 09:15:08;;;;;;;0.77;0.77;;;28.80;99.90;;;;;;5075772;28;20197;-80
2022/07/30 09:18:03;;;;;;;2.00;0.73;;;28.80;99.90;;;;;;5065886;28;20643;-80
2022/07/30 09:20:34;;;;;;;0.83;0.83;;;28.20;99.90;;;;;;5045536;28;20194;-80
2022/07/30 09:23:02;;;;;;;0.83;0.83;;;27.90;99.90;;;;;;5065529;28;20216;-80
2022/07/30 09:25:38;;;;;;;1.20;1.00;;;27.40;99.90;;;;;;5071819;28;20185;-80
2022/07/30 09:28:05;;;;;;;2.80;2.40;;;27.20;99.90;;;;;;5061597;28;20188;-80
2022/07/30 09:30:50;;;;;;;0.60;0.60;;;27.50;99.90;;;;;;5066748;28;20169;-80
2022/07/30 09:33:40;;;;;;;0.73;0.73;;;27.30;99.90;;;;;;5063891;28;20182;-80
2022/07/30 09:36:08;;;;;;;0.60;0.60;;;27.40;99.90;;;;;;5075000;28;20180;-80
2022/07/30 09:38:49;;;;;;;0.90;0.60;;;27.40;99.90;;;;;;5071708;28;20185;-80
2022/07/30 09:41:16;;;;;;;0.50;0.50;;;27.40;99.90;;;;;;5072828;28;20234;-80
2022/07/30 09:43:50;;;;;;;0.50;0.50;;;27.60;99.90;;;;;;5069523;28;20307;-79
2022/07/30 09:46:16;;;;;;;0.77;0.67;;;27.80;99.90;;;;;;5074522;28;20247;-81
2022/07/30 09:48:43;;;;;;;0.93;0.93;;;27.70;99.90;;;;;;5067438;28;20202;-80
2022/07/30 09:51:09;;;;;;;0.73;0.73;;;27.60;99.90;;;;;;5072819;28;20342;-80
2022/07/30 09:53:35;;;;;;;0.97;0.80;;;27.40;99.90;;;;;;5072943;28;20212;-80
2022/07/30 09:56:24;;;;;;;0.47;0.47;;;27.50;99.90;;;;;;5073384;28;21209;-80
2022/07/30 09:58:49;;;;;;;1.00;0.83;;;27.20;99.90;;;;;;5058039;28;20182;-80
2022/07/30 10:01:15;;;;;;;0.60;0.60;;;27.50;99.90;;;;;;5066931;28;20208;-80
2022/07/30 10:03:42;;;;;;;0.90;0.90;;;27.80;99.90;;;;;;5073029;28;20193;-80
2022/07/30 10:06:07;;;;;;;0.70;0.70;;;28.10;99.90;;;;;;5069325;28;20251;-80
2022/07/30 10:08:49;;;;;;;1.13;0.70;;;28.20;99.90;;;;;;5083179;28;20678;-80
2022/07/30 10:11:18;;;;;;;0.67;0.67;;;28.20;99.90;;;;;;5063371;28;20285;-80
2022/07/30 10:13:47;;;;;;;0.97;0.93;;;28.20;99.90;;;;;;5070396;28;20185;-80
2022/07/30 10:16:12;;;;;;;0.73;0.73;;;28.40;99.90;;;;;;5072060;28;20189;-80
2022/07/30 10:18:41;;;;;;;0.87;0.87;;;28.40;99.90;;;;;;5067937;28;20193;-80
2022/07/30 10:21:07;;;;;;;1.33;0.70;;;28.50;99.90;;;;;;5070630;28;20196;-80
2022/07/30 10:23:34;;;;;;;0.45;0.45;;;28.50;99.90;;;;;;5072356;28;20204;-80
2022/07/30 10:26:01;;;;;;;0.63;0.63;;;28.70;99.90;;;;;;5066420;28;20568;-81
2022/07/30 10:28:28;;;;;;;0.47;0.47;;;28.50;99.90;;;;;;5065406;28;20250;-80
2022/07/30 10:30:55;;;;;;;1.80;1.70;;;28.70;99.90;;;;;;5063896;28;20215;-80
2022/07/30 10:33:22;;;;;;;0.85;0.85;;;28.70;99.90;;;;;;5070510;28;20199;-80
2022/07/30 10:35:48;;;;;;;0.50;0.50;;;28.80;99.90;;;;;;5069735;28;20268;-80
2022/07/30 10:38:15;;;;;;;0.93;0.73;;;28.80;99.90;;;;;;5066793;28;20849;-81
2022/07/30 10:40:54;;;;;;;0.55;0.52;;;28.90;99.90;;;;;;5074894;28;20200;-80
2022/07/30 10:43:37;;;;;;;0.60;0.60;;;28.90;99.90;;;;;;5069857;28;20283;-80
2022/07/30 10:46:27;;;;;;;0.90;0.70;;;28.90;99.90;;;;;;5072546;28;20180;-80
2022/07/30 10:48:54;;;;;;;0.70;0.70;;;29.00;99.90;;;;;;5086724;28;20204;-80
2022/07/30 10:51:21;;;;;;;1.03;1.00;;;29.00;99.90;;;;;;5064975;28;20189;-78
2022/07/30 10:53:47;;;;;;;0.80;0.80;;;29.20;99.90;;;;;;5065070;28;20189;-79
2022/07/30 10:56:20;;;;;;;0.70;0.70;;;29.10;99.90;;;;;;5060482;28;20187;-78
2022/07/30 10:59:08;;;;;;;0.68;0.68;;;29.10;99.90;;;;;;5068564;28;20191;-78
2022/07/30 11:01:46;;;;;;;0.77;0.77;;;29.10;99.90;;;;;;5068722;28;20201;-78
2022/07/30 11:04:21;;;;;;;0.60;0.60;;;29.20;99.90;;;;;;5085096;28;20197;-78
2022/07/30 11:06:47;;;;;;;0.88;0.73;;;29.20;99.90;;;;;;5069821;28;20184;-78
2022/07/30 11:09:36;;;;;;;0.80;0.70;;;29.10;99.90;;;;;;5068358;28;20193;-79
2022/07/30 11:12:04;;;;;;;0.55;0.50;;;29.10;99.90;;;;;;5055735;28;20213;-79
2022/07/30 11:14:50;;;;;;;0.57;0.57;;;29.40;99.90;;;;;;5068845;28;20185;-79
2022/07/30 11:17:17;;;;;;;0.65;0.60;;;29.30;99.90;;;;;;5052686;28;20294;-79
2022/07/30 11:20:02;;;;;;;0.60;0.60;;;29.20;99.90;;;;;;5070457;28;20284;-79
2022/07/30 11:22:37;;;;;;;0.60;0.60;;;28.80;99.90;;;;;;5063774;28;20197;-79
2022/07/30 11:25:08;;;;;;;0.63;0.63;;;28.60;99.90;;;;;;5068848;28;20192;-79
2022/07/30 11:27:45;;;;;;;0.70;0.70;;;28.80;99.90;;;;;;5074623;28;20192;-79
2022/07/30 11:30:17;;;;;;;0.73;0.73;;;28.90;99.90;;;;;;5074967;28;20270;-78
2022/07/30 11:32:46;;;;;;;0.60;0.60;;;29.00;99.90;;;;;;5068684;28;20209;-79
2022/07/30 11:35:29;;;;;;;0.73;0.68;;;29.20;99.90;;;;;;5073096;28;20187;-78
2022/07/30 11:37:58;;;;;;;0.85;0.80;;;29.00;99.90;;;;;;5072849;28;20185;-79
2022/07/30 11:40:25;;;;;;;1.95;1.05;;;28.90;99.90;;;;;;5064721;28;20670;-79
2022/07/30 11:43:11;;;;;;;0.75;0.75;;;29.10;99.90;;;;;;5087931;28;20185;-79
2022/07/30 11:45:37;;;;;;;0.63;0.60;;;29.20;99.90;;;;;;5065783;28;20243;-79
2022/07/30 11:48:09;;;;;;;0.50;0.50;;;29.60;99.90;;;;;;5074611;28;20181;-79
2022/07/30 11:50:35;;;;;;;0.55;0.35;;;29.60;99.90;;;;;;5067866;28;20179;-79
2022/07/30 11:53:03;;;;;;;0.65;0.60;;;29.60;99.90;;;;;;5067460;28;20271;-79
2022/07/30 11:55:31;;;;;;;1.40;1.30;;;29.30;99.90;;;;;;5061148;28;20182;-79
2022/07/30 11:57:57;;;;;;;0.63;0.63;;;29.20;99.90;;;;;;5065064;28;20228;-79
2022/07/30 12:00:24;;;;;;;0.60;0.60;;;29.40;99.90;;;;;;5068920;28;20217;-79
2022/07/30 12:02:50;;;;;;;0.88;0.88;;;29.50;99.90;;;;;;5067507;28;20223;-79
2022/07/30 12:05:23;;;;;;;1.15;1.10;;;29.30;99.90;;;;;;5072796;28;20212;-80
2022/07/30 12:07:49;;;;;;;0.70;0.70;;;29.30;99.90;;;;;;5068527;28;20208;-79
2022/07/30 12:10:17;;;;;;;0.88;0.73;;;29.50;99.90;;;;;;5078350;28;20779;-79
2022/07/30 12:12:43;;;;;;;0.70;0.70;;;29.70;99.90;;;;;;5065022;28;20209;-79
2022/07/30 12:15:27;;;;;;;0.63;0.63;;;29.30;99.90;;;;;;5073295;28;20668;-79
2022/07/30 12:17:53;;;;;;;0.70;0.70;;;29.20;99.90;;;;;;5069248;28;20212;-79
2022/07/30 12:20:19;;;;;;;0.55;0.50;;;29.10;99.90;;;;;;5070642;28;20204;-79
2022/07/30 12:22:46;;;;;;;0.70;0.70;;;29.10;99.90;;;;;;5070688;28;20653;-79
2022/07/30 12:25:12;;;;;;;0.70;0.70;;;29.20;99.90;;;;;;5071007;28;20279;-79
2022/07/30 12:27:38;;;;;;;0.77;0.77;;;29.30;99.90;;;;;;5069042;28;20189;-79
2022/07/30 12:30:06;;;;;;;0.60;0.60;;;29.10;99.90;;;;;;5069862;28;20182;-79
2022/07/30 12:32:33;;;;;;;0.70;0.50;;;29.20;99.90;;;;;;5067131;28;20203;-79
2022/07/30 12:34:59;;;;;;;1.23;0.85;;;29.10;99.90;;;;;;5065020;28;20190;-79
2022/07/30 12:37:24;;;;;;;0.47;0.47;;;29.30;99.90;;;;;;5071501;28;20544;-79
2022/07/30 12:40:11;;;;;;;3.70;0.73;;;29.30;99.90;;;;;;5063007;28;20327;-79
2022/07/30 12:42:54;;;;;;;0.75;0.55;;;29.50;99.90;;;;;;5069400;28;20299;-80
2022/07/30 12:45:31;;;;;;;0.47;0.47;;;29.30;99.90;;;;;;5071681;28;20221;-79
2022/07/30 12:48:00;;;;;;;0.55;0.55;;;29.40;99.90;;;;;;5068827;28;20192;-79
2022/07/30 12:50:26;;;;;;;0.93;0.93;;;29.50;99.90;;;;;;5064323;28;20185;-78
2022/07/30 12:52:54;;;;;;;0.88;0.88;;;29.50;99.90;;;;;;5063707;28;20236;-78
2022/07/30 12:55:31;;;;;;;0.55;0.55;;;29.60;99.90;;;;;;5069036;28;20242;-78
2022/07/30 12:58:05;;;;;;;0.60;0.60;;;29.60;99.90;;;;;;5065432;28;20264;-78